createdAt,value
2022-08-19T06:26:11.980Z,53.10
2022-08-19T06:27:11.948Z,49.70
2022-08-19T06:28:15.011Z,40.50
2022-08-19T06:29:11.929Z,38.80
2022-08-19T06:30:12.922Z,40.10
2022-08-19T06:31:11.900Z,45.70
2022-08-19T06:32:11.881Z,44.40
2022-08-19T06:33:11.879Z,45.60
2022-08-19T06:34:11.880Z,41.30
2022-08-19T06:35:11.851Z,42.90
2022-08-19T06:36:11.840Z,41.10
2022-08-19T06:37:11.832Z,42.70
2022-08-19T06:38:11.831Z,42.60
2022-08-19T06:39:11.810Z,44.30
2022-08-19T06:40:11.907Z,45.60
2022-08-19T06:41:11.806Z,43.60
2022-08-19T06:42:11.784Z,43.40
2022-08-19T06:43:11.797Z,45.40
2022-08-19T06:44:13.241Z,42.30
2022-08-19T06:45:11.752Z,45.30
2022-08-19T06:46:11.745Z,44.80
2022-08-19T06:47:14.678Z,47.60
2022-08-19T06:48:12.765Z,45.30
2022-08-19T06:49:11.715Z,46.10
2022-08-19T06:50:11.736Z,44.40
2022-08-19T06:51:11.808Z,41.90
2022-08-19T06:52:13.644Z,41.40
2022-08-19T06:53:11.696Z,42.00
2022-08-19T06:54:19.047Z,42.20
2022-08-19T06:55:12.648Z,43.30
2022-08-19T06:56:11.628Z,47.20
2022-08-19T06:57:11.618Z,45.00
2022-08-19T06:58:11.629Z,49.00
2022-08-19T06:59:11.608Z,39.30
2022-08-19T07:00:13.016Z,47.20
2022-08-19T07:01:11.580Z,41.50
2022-08-19T07:02:11.584Z,43.00
2022-08-19T07:03:13.325Z,41.80
2022-08-19T07:04:12.073Z,43.80
2022-08-19T07:05:11.542Z,40.20
2022-08-19T07:06:21.335Z,38.00
2022-08-19T07:07:12.569Z,39.80
2022-08-19T07:08:12.605Z,38.20
2022-08-19T07:09:11.499Z,43.60
2022-08-19T07:10:11.581Z,38.50
2022-08-19T07:11:11.491Z,35.60
2022-08-19T07:12:11.454Z,35.90
2022-08-19T07:13:11.474Z,36.50
2022-08-19T07:14:19.614Z,34.50
2022-08-19T07:15:12.424Z,38.20
2022-08-19T07:16:11.456Z,40.30
2022-08-19T07:17:11.408Z,37.20
2022-08-19T07:18:11.927Z,34.40
2022-08-19T07:19:11.598Z,36.60
2022-08-19T07:20:11.369Z,31.90
2022-08-19T07:21:11.378Z,31.60
2022-08-19T07:22:13.151Z,33.10
2022-08-19T07:23:16.255Z,30.90
2022-08-19T07:24:12.417Z,30.50
2022-08-19T07:25:11.329Z,29.70
2022-08-19T07:26:11.441Z,32.40
2022-08-19T07:27:15.290Z,34.10
2022-08-19T07:28:19.679Z,34.80
2022-08-19T07:29:12.291Z,30.20
2022-08-19T07:30:11.685Z,32.30
2022-08-19T07:31:11.262Z,31.40
2022-08-19T07:32:11.561Z,31.90
2022-08-19T07:33:11.259Z,30.20
2022-08-19T07:34:11.224Z,30.40
2022-08-19T07:35:11.214Z,31.80
2022-08-19T07:36:11.204Z,29.30
2022-08-19T07:37:11.195Z,29.80
2022-08-19T07:38:11.213Z,33.40
2022-08-19T07:39:11.218Z,29.10
2022-08-19T07:40:11.172Z,30.20
2022-08-19T07:41:11.156Z,31.90
2022-08-19T07:42:11.178Z,28.00
2022-08-19T07:43:14.092Z,29.60
2022-08-19T07:44:12.121Z,29.90
2022-08-19T07:45:11.123Z,31.60
2022-08-19T07:47:48.376Z,34.10
2022-08-19T07:48:12.085Z,29.70
2022-08-19T07:49:11.070Z,28.70
2022-08-19T07:50:11.133Z,29.70
2022-08-19T07:51:11.043Z,30.00
2022-08-19T07:52:11.063Z,31.10
2022-08-19T07:53:11.022Z,27.40
2022-08-19T07:54:11.127Z,30.80
2022-08-19T07:55:40.284Z,26.90
2022-08-19T07:56:12.004Z,28.50
2022-08-19T07:57:10.984Z,29.20
2022-08-19T07:58:11.005Z,27.00
2022-08-19T07:59:10.994Z,29.60
2022-08-19T08:00:10.982Z,32.70
2022-08-19T08:01:10.935Z,28.90
2022-08-19T08:02:11.082Z,25.30
2022-08-19T08:03:10.930Z,28.60
2022-08-19T08:04:10.928Z,26.40
2022-08-19T08:05:10.898Z,33.10
2022-08-19T08:06:10.895Z,29.70
2022-08-19T08:07:10.919Z,25.70
2022-08-19T08:08:10.920Z,29.80
2022-08-19T08:09:10.873Z,31.90
2022-08-19T08:10:20.635Z,30.20
2022-08-19T08:11:11.832Z,34.30
2022-08-19T08:12:32.846Z,30.30
2022-08-19T08:13:12.106Z,29.40
2022-08-19T08:14:34.896Z,26.80
2022-08-19T08:15:12.719Z,28.50
2022-08-19T08:16:14.038Z,26.20
2022-08-19T08:17:11.175Z,25.10
2022-08-19T08:18:10.762Z,27.20
2022-08-19T08:19:20.374Z,26.80
2022-08-19T08:20:11.760Z,26.10
2022-08-19T08:21:10.733Z,28.40
2022-08-19T08:22:10.746Z,28.80
2022-08-19T08:23:10.717Z,26.70
2022-08-19T08:24:10.738Z,26.80
2022-08-19T08:25:10.703Z,24.60
2022-08-19T08:26:10.751Z,26.70
2022-08-19T08:27:11.323Z,28.30
2022-08-19T08:28:11.355Z,25.10
2022-08-19T08:29:12.738Z,26.10
2022-08-19T08:30:10.682Z,25.00
2022-08-19T08:31:10.624Z,25.60
2022-08-19T08:32:14.019Z,24.30
2022-08-19T08:33:10.682Z,23.70
2022-08-19T08:34:10.712Z,26.20
2022-08-19T08:35:10.583Z,23.90
2022-08-19T08:36:10.658Z,23.60
2022-08-19T08:37:10.564Z,26.50
2022-08-19T08:38:10.593Z,26.40
2022-08-19T08:39:10.544Z,32.40
2022-08-19T08:40:13.191Z,26.10
2022-08-19T08:41:10.542Z,29.10
2022-08-19T08:42:16.726Z,27.60
2022-08-19T08:43:11.758Z,29.20
2022-08-19T08:44:10.507Z,29.30
2022-08-19T08:45:11.616Z,29.00
2022-08-19T08:46:12.395Z,31.10
2022-08-19T08:47:10.458Z,24.90
2022-08-19T08:48:22.375Z,26.60
2022-08-19T08:49:11.498Z,30.00
2022-08-19T08:50:10.530Z,28.60
2022-08-19T08:51:10.422Z,31.20
2022-08-19T08:52:10.550Z,32.30
2022-08-19T08:53:10.411Z,30.40
2022-08-19T08:54:10.392Z,33.50
2022-08-19T08:55:10.708Z,36.10
2022-08-19T08:56:10.394Z,34.10
2022-08-19T08:57:10.364Z,34.70
2022-08-19T08:58:10.388Z,32.20
2022-08-19T08:59:10.348Z,35.70
2022-08-19T09:00:15.176Z,32.50
2022-08-19T09:01:11.396Z,31.90
2022-08-19T09:02:10.367Z,39.40
2022-08-19T09:03:10.526Z,38.00
2022-08-19T09:04:10.309Z,41.00
2022-08-19T09:05:10.278Z,40.50
2022-08-19T09:06:12.053Z,39.40
2022-08-19T09:07:22.908Z,39.60
2022-08-19T09:08:12.157Z,38.50
2022-08-19T09:09:11.930Z,38.80
2022-08-19T09:10:10.282Z,42.40
2022-08-19T09:11:10.221Z,47.00
2022-08-19T09:12:11.723Z,45.10
2022-08-19T09:13:10.220Z,42.80
2022-08-19T09:14:29.239Z,41.90
2022-08-19T09:15:11.185Z,46.10
2022-08-19T09:16:10.321Z,40.10
2022-08-19T09:17:10.172Z,38.70
2022-08-19T09:18:15.289Z,42.30
2022-08-19T09:19:11.153Z,40.00
2022-08-19T09:20:10.154Z,43.00
2022-08-19T09:21:10.126Z,39.90
2022-08-19T09:22:10.652Z,46.90
2022-08-19T09:23:10.124Z,40.20
2022-08-19T09:24:10.155Z,42.00
2022-08-19T09:25:10.088Z,39.80
2022-08-19T09:26:10.416Z,39.00
2022-08-19T09:27:18.457Z,39.20
2022-08-19T09:28:20.355Z,46.30
2022-08-19T09:29:11.062Z,45.40
2022-08-19T09:30:10.052Z,37.90
2022-08-19T09:31:10.051Z,38.50
2022-08-19T09:32:26.224Z,38.50
2022-08-19T09:33:11.032Z,43.40
2022-08-19T09:34:21.162Z,43.40
2022-08-19T09:35:11.005Z,39.00
2022-08-19T09:36:10.146Z,39.40
2022-08-19T09:37:09.985Z,37.30
2022-08-19T09:38:10.023Z,34.20
2022-08-19T09:39:16.146Z,34.60
2022-08-19T09:40:11.927Z,34.40
2022-08-19T09:41:09.945Z,39.40
2022-08-19T09:42:16.093Z,33.90
2022-08-19T09:43:13.163Z,40.00
2022-08-19T09:44:09.972Z,39.60
2022-08-19T09:45:10.222Z,39.70
2022-08-19T09:46:09.962Z,35.50
2022-08-19T09:47:09.890Z,38.20
2022-08-19T09:48:10.027Z,36.30
2022-08-19T09:49:09.925Z,30.00
2022-08-19T09:50:09.880Z,30.30
2022-08-19T09:51:11.962Z,27.50
2022-08-19T11:15:46.690Z,49.70
2022-08-19T11:16:46.651Z,43.40
2022-08-19T11:17:46.683Z,13.00
2022-08-19T11:18:46.636Z,15.30
2022-08-19T11:19:46.623Z,17.60
2022-08-19T11:20:46.614Z,19.80
2022-08-19T11:21:46.671Z,16.80
2022-08-19T11:22:46.604Z,18.30
2022-08-19T11:23:46.586Z,15.90
2022-08-19T11:24:46.615Z,16.00
2022-08-19T11:25:46.598Z,18.80
2022-08-19T11:26:46.575Z,17.00
2022-08-19T11:27:46.576Z,18.80
2022-08-19T11:28:46.548Z,19.30
2022-08-19T11:29:46.549Z,16.20
2022-08-19T11:30:46.521Z,17.00
2022-08-19T12:58:21.476Z,47.80
2022-08-19T13:00:31.558Z,52.00
2022-08-19T13:01:35.003Z,48.30
2022-08-19T13:02:43.704Z,13.70
2022-08-19T13:03:31.239Z,13.30
2022-08-19T13:56:37.536Z,26.20
2022-08-19T13:57:37.533Z,23.40
2022-08-19T13:58:37.538Z,10.90
2022-08-19T13:59:37.490Z,12.20
2022-08-19T14:00:37.542Z,10.70
2022-08-19T14:01:37.468Z,14.20
2022-08-19T14:02:37.465Z,10.60
2022-08-19T14:03:37.439Z,11.60
2022-08-19T14:04:37.449Z,14.30
2022-08-19T14:05:37.444Z,13.30
2022-08-19T14:06:37.425Z,12.10
2022-08-19T14:07:37.423Z,14.80
2022-08-19T14:08:37.412Z,14.30
2022-08-19T14:09:37.383Z,16.70
2022-08-19T14:10:37.413Z,11.30
2022-08-19T15:00:50.734Z,36.00
2022-08-19T15:01:50.778Z,33.50
2022-08-19T15:02:50.712Z,14.60
2022-08-19T15:03:50.725Z,10.70
2022-08-19T15:04:58.137Z,12.60
2022-08-19T15:05:51.685Z,11.70
2022-08-19T15:46:11.605Z,28.50
2022-08-19T15:47:12.615Z,26.10
2022-08-19T15:48:11.545Z,6.20
2022-08-19T15:49:11.536Z,8.30
2022-08-19T15:50:11.598Z,7.30
2022-08-19T15:51:11.506Z,8.90
2022-08-19T15:52:11.499Z,10.30
2022-08-19T15:53:11.507Z,9.00
2022-08-19T15:54:11.645Z,6.80
2022-08-19T15:55:11.468Z,10.10
2022-08-19T15:56:12.470Z,6.20
2022-08-19T15:57:11.435Z,10.00
2022-08-19T15:58:11.443Z,10.00
2022-08-19T15:59:12.411Z,8.20
2022-08-19T16:00:11.672Z,8.30
2022-08-19T16:01:12.834Z,9.90
2022-08-19T17:00:47.436Z,38.90
2022-08-19T17:01:47.576Z,34.20
2022-08-19T17:02:47.398Z,4.90
2022-08-19T17:03:47.429Z,6.20
2022-08-19T17:04:57.623Z,5.00
2022-08-19T17:05:48.379Z,4.40
2022-08-19T17:06:47.357Z,5.10
2022-08-19T17:07:47.351Z,7.60
2022-08-19T17:08:48.834Z,5.30
2022-08-19T17:09:47.319Z,6.10
2022-08-19T17:11:16.450Z,8.60
2022-08-19T17:11:48.300Z,7.80
2022-08-19T17:12:47.377Z,7.00
2022-08-19T17:13:47.924Z,5.10
2022-08-19T17:14:47.271Z,3.30
2022-08-19T17:15:47.262Z,3.90
2022-08-19T17:16:47.371Z,3.90
2022-08-19T17:17:47.242Z,6.10
2022-08-19T17:18:47.223Z,5.40
2022-08-19T17:19:47.252Z,3.20
2022-08-19T17:20:47.211Z,6.80
2022-08-19T17:21:47.196Z,6.60
2022-08-19T17:22:47.191Z,6.80
2022-08-19T17:23:47.166Z,12.10
2022-08-19T17:24:47.166Z,5.00
2022-08-19T17:25:47.148Z,6.20
2022-08-19T17:26:47.146Z,6.40
2022-08-19T17:27:47.126Z,5.00
2022-08-19T17:28:47.129Z,4.20
2022-08-19T17:29:47.329Z,9.50
2022-08-19T17:30:47.106Z,6.70
2022-08-19T18:28:05.998Z,25.50
2022-08-19T18:29:05.884Z,25.00
2022-08-19T18:30:05.920Z,11.50
2022-08-19T18:31:05.855Z,12.00
2022-08-19T18:32:05.905Z,7.90
2022-08-19T18:33:09.064Z,7.90
2022-08-19T18:34:05.840Z,3.80
2022-08-19T18:35:05.816Z,6.70
2022-08-19T18:36:06.056Z,9.00
2022-08-19T18:37:05.790Z,12.50
2022-08-19T18:38:05.788Z,7.60
2022-08-19T18:39:08.075Z,10.20
2022-08-19T18:40:05.821Z,4.40
2022-08-19T18:41:05.759Z,7.40
2022-08-19T18:42:05.760Z,6.30
2022-08-19T18:43:05.727Z,4.90
2022-08-19T18:44:05.798Z,8.40
2022-08-19T18:45:05.710Z,7.60
2022-08-19T18:46:07.160Z,5.10
2022-08-19T18:47:05.691Z,4.20
2022-08-19T18:48:05.713Z,6.20
2022-08-19T18:49:05.662Z,8.10
2022-08-19T18:50:05.700Z,5.50
2022-08-19T18:51:05.653Z,9.90
2022-08-19T18:52:05.633Z,4.40
2022-08-19T18:53:05.624Z,4.60
2022-08-19T18:54:05.625Z,5.70
2022-08-19T18:55:05.615Z,7.00
2022-08-19T18:56:05.644Z,6.50
2022-08-19T18:57:05.686Z,5.50
2022-08-19T18:58:05.605Z,8.50
2022-08-19T18:59:05.583Z,8.00
2022-08-19T19:00:05.556Z,4.60
2022-08-19T19:01:05.591Z,7.40
2022-08-19T19:02:05.546Z,4.90
2022-08-19T19:03:05.525Z,3.40
2022-08-19T19:04:05.517Z,6.50
2022-08-19T19:05:07.352Z,6.60
2022-08-19T19:06:05.557Z,6.40
2022-08-19T19:07:05.470Z,7.60
2022-08-19T19:08:05.877Z,5.60
2022-08-19T19:09:05.471Z,13.70
2022-08-19T19:10:05.654Z,5.90
2022-08-19T19:11:05.429Z,8.40
2022-08-19T19:12:05.519Z,6.30
2022-08-19T19:13:05.400Z,6.70
2022-08-19T19:14:05.471Z,4.40
2022-08-19T19:15:05.414Z,6.70
2022-08-19T19:16:05.394Z,9.40
2022-08-19T19:17:05.362Z,8.50
2022-08-19T19:18:05.363Z,4.70
2022-08-19T19:19:05.351Z,7.10
2022-08-19T19:20:05.426Z,5.40
2022-08-19T19:21:05.322Z,10.00
2022-08-19T19:22:05.335Z,5.90
2022-08-19T19:23:05.294Z,6.80
2022-08-19T19:24:05.348Z,3.60
2022-08-19T19:25:05.267Z,6.40
2022-08-19T19:26:05.268Z,5.00
2022-08-19T19:27:05.244Z,10.00
2022-08-19T19:28:05.256Z,7.30
2022-08-19T19:29:05.245Z,8.00
2022-08-19T19:30:05.331Z,5.30
2022-08-19T19:31:05.204Z,4.10
2022-08-19T19:32:05.214Z,4.90
2022-08-19T19:33:05.187Z,6.30
2022-08-19T19:34:05.255Z,6.10
2022-08-19T19:35:06.168Z,5.80
2022-08-19T19:36:05.158Z,8.10
2022-08-19T19:37:05.136Z,5.80
2022-08-19T19:38:05.160Z,4.30
2022-08-19T19:39:05.128Z,4.20
2022-08-19T19:40:05.231Z,3.50
2022-08-19T19:41:05.094Z,5.00
2022-08-19T19:42:05.091Z,4.00
2022-08-19T19:43:06.075Z,4.90
2022-08-19T19:44:30.049Z,9.30
2022-08-19T19:45:06.045Z,5.30
2022-08-19T19:46:05.114Z,3.70
2022-08-19T19:47:05.032Z,6.40
2022-08-19T19:48:05.027Z,5.60
2022-08-19T19:49:05.023Z,5.70
2022-08-19T19:50:14.659Z,4.80
2022-08-19T19:51:05.986Z,9.50
2022-08-19T19:52:05.088Z,3.00
2022-08-19T19:53:04.965Z,6.30
2022-08-19T19:54:04.982Z,4.00
2022-08-19T19:55:04.936Z,7.40
2022-08-19T19:56:04.973Z,7.30
2022-08-19T19:57:04.933Z,7.90
2022-08-19T19:58:04.914Z,8.00
2022-08-19T19:59:04.909Z,6.10
2022-08-19T20:00:04.922Z,7.20
2022-08-19T20:01:09.742Z,6.30
2022-08-19T20:02:05.868Z,5.70
2022-08-19T20:03:04.848Z,5.60
2022-08-19T20:04:04.903Z,7.10
2022-08-19T20:05:04.829Z,8.70
2022-08-19T20:06:04.818Z,3.60
2022-08-19T20:07:04.808Z,4.80
2022-08-19T20:08:04.820Z,2.90
2022-08-19T20:09:04.790Z,5.30
2022-08-19T20:10:04.781Z,8.70
2022-08-19T20:11:04.770Z,3.90
2022-08-19T20:12:04.796Z,4.40
2022-08-19T20:13:04.764Z,5.60
2022-08-19T20:14:04.751Z,5.40
2022-08-19T20:15:04.719Z,4.70
2022-08-19T20:16:04.714Z,5.20
2022-08-19T20:17:04.701Z,8.30
2022-08-19T20:18:04.699Z,5.80
2022-08-19T20:19:04.683Z,8.10
2022-08-19T20:20:04.735Z,5.10
2022-08-19T20:21:04.654Z,5.60
2022-08-19T20:22:04.646Z,5.20
2022-08-19T20:23:04.638Z,9.90
2022-08-19T20:24:09.773Z,6.60
2022-08-19T20:25:05.607Z,4.90
2022-08-19T20:26:04.597Z,5.40
2022-08-19T20:27:04.587Z,4.60
2022-08-19T20:28:04.595Z,5.50
2022-08-19T20:29:13.531Z,5.40
2022-08-19T20:30:05.723Z,4.70
2022-08-19T20:31:04.538Z,5.50
2022-08-19T20:32:04.548Z,5.40
2022-08-19T20:33:04.518Z,5.30
2022-08-19T20:34:04.518Z,4.20
2022-08-19T20:35:04.509Z,3.50
2022-08-19T20:36:04.500Z,5.30
2022-08-19T20:37:04.469Z,5.00
2022-08-19T20:38:04.491Z,6.00
2022-08-19T20:39:04.451Z,5.60
2022-08-19T20:40:04.681Z,3.90
2022-08-19T20:41:04.492Z,5.20
2022-08-19T20:42:04.482Z,2.40
2022-08-19T20:43:04.411Z,4.80
2022-08-19T20:44:04.475Z,5.30
2022-08-19T20:45:04.392Z,6.60
2022-08-19T20:46:04.381Z,2.90
2022-08-19T20:47:04.460Z,3.30
2022-08-19T20:48:04.357Z,2.60
2022-08-19T20:49:04.344Z,5.60
2022-08-19T20:50:04.354Z,2.80
2022-08-19T20:51:04.356Z,6.50
2022-08-19T20:52:04.325Z,4.90
2022-08-19T20:53:04.304Z,4.60
2022-08-19T20:54:04.330Z,2.90
2022-08-19T20:55:04.285Z,4.10
2022-08-19T20:56:04.277Z,2.70
2022-08-19T20:57:04.257Z,7.30
2022-08-19T20:58:04.264Z,2.00
2022-08-19T20:59:04.248Z,5.80
2022-08-19T21:00:04.289Z,3.10
2022-08-19T21:01:04.279Z,3.80
2022-08-19T21:02:04.311Z,2.80
2022-08-19T21:03:04.189Z,6.70
2022-08-19T21:04:04.428Z,3.40
2022-08-19T21:05:05.181Z,12.30
2022-08-19T21:06:04.238Z,5.10
2022-08-19T21:07:04.143Z,7.00
2022-08-19T21:08:04.173Z,3.30
2022-08-19T21:09:04.140Z,6.20
2022-08-19T21:10:04.861Z,3.20
2022-08-19T21:11:04.102Z,2.30
2022-08-19T21:12:04.108Z,4.00
2022-08-19T21:13:04.073Z,5.70
2022-08-19T21:14:04.092Z,5.30
2022-08-19T21:15:04.074Z,7.40
2022-08-19T21:16:04.091Z,3.30
2022-08-19T21:17:05.034Z,4.90
2022-08-19T21:18:04.043Z,3.00
2022-08-19T21:19:04.030Z,4.40
2022-08-19T21:20:04.030Z,4.20
2022-08-19T21:21:04.002Z,3.90
2022-08-19T21:22:04.003Z,4.90
2022-08-19T21:23:03.976Z,5.40
2022-08-19T21:24:03.967Z,2.70
2022-08-19T21:25:03.957Z,4.20
2022-08-19T21:26:03.989Z,1.90
2022-08-19T21:27:03.927Z,8.50
2022-08-19T21:28:03.927Z,2.60
2022-08-19T21:29:03.928Z,4.20
2022-08-19T21:30:03.937Z,4.70
2022-08-19T21:31:03.911Z,7.80
2022-08-19T21:32:03.891Z,5.00
2022-08-19T21:33:03.869Z,6.20
2022-08-19T21:34:03.891Z,5.50
2022-08-19T21:35:03.851Z,4.80
2022-08-19T21:36:03.831Z,2.70
2022-08-19T21:37:03.821Z,6.00
2022-08-19T21:38:03.815Z,4.90
2022-08-19T21:39:03.831Z,6.40
2022-08-19T21:40:03.838Z,4.40
2022-08-19T21:41:05.798Z,3.20
2022-08-19T21:42:03.778Z,3.90
2022-08-19T21:43:03.763Z,6.10
2022-08-19T21:44:03.822Z,3.80
2022-08-19T21:45:03.745Z,7.40
2022-08-19T21:46:03.739Z,3.50
2022-08-19T21:47:03.714Z,5.00
2022-08-19T21:48:03.805Z,2.90
2022-08-19T21:49:03.696Z,4.60
2022-08-19T21:50:03.726Z,2.60
2022-08-19T21:51:03.668Z,6.50
2022-08-19T21:52:03.648Z,3.00
2022-08-19T21:53:03.649Z,4.50
2022-08-19T21:54:03.770Z,4.40
2022-08-19T21:55:03.633Z,7.00
2022-08-19T21:56:03.648Z,4.10
2022-08-19T21:57:03.599Z,6.00
2022-08-19T21:58:04.604Z,2.90
2022-08-19T21:59:03.598Z,1.80
2022-08-19T22:00:03.581Z,2.10
2022-08-19T22:01:03.597Z,6.50
2022-08-19T22:02:19.162Z,3.90
2022-08-19T22:03:04.557Z,4.50
2022-08-19T22:04:03.551Z,4.50
2022-08-19T22:05:03.512Z,8.80
2022-08-19T22:06:03.510Z,5.50
2022-08-19T22:07:03.492Z,4.20
2022-08-19T22:08:03.495Z,4.60
2022-08-19T22:09:03.491Z,7.00
2022-08-19T22:10:03.453Z,3.20
2022-08-19T22:11:03.450Z,6.00
2022-08-19T22:12:03.462Z,5.30
2022-08-19T22:13:03.433Z,5.50
2022-08-19T22:14:03.928Z,3.80
2022-08-19T22:15:03.406Z,3.80
2022-08-19T22:16:03.407Z,2.70
2022-08-19T22:17:03.385Z,2.80
2022-08-19T22:18:03.387Z,4.70
2022-08-19T22:19:03.846Z,6.60
2022-08-19T22:20:03.364Z,2.60
2022-08-19T22:21:03.335Z,3.30
2022-08-19T22:22:03.543Z,5.60
2022-08-19T22:23:03.318Z,12.40
2022-08-19T22:24:04.098Z,7.10
2022-08-19T22:25:03.299Z,9.30
2022-08-19T22:26:03.480Z,5.20
2022-08-19T22:27:03.278Z,8.60
2022-08-19T22:28:54.466Z,67.80
2022-08-19T22:29:54.428Z,58.20
2022-08-19T22:30:54.405Z,5.10
2022-08-19T22:31:58.344Z,3.50
2022-08-19T22:32:56.002Z,7.60
2022-08-19T22:33:54.415Z,5.30
2022-08-19T22:34:54.386Z,3.20
2022-08-19T22:35:54.362Z,3.70
2022-08-19T22:36:54.347Z,4.50
2022-08-19T22:37:54.445Z,4.40
2022-08-19T22:38:54.329Z,5.70
2022-08-19T22:39:54.353Z,3.80
2022-08-19T22:40:54.299Z,4.10
2022-08-19T23:15:51.775Z,25.90
2022-08-19T23:16:54.114Z,22.50
2022-08-19T23:17:51.824Z,5.80
2022-08-19T23:18:55.936Z,4.70
2022-08-19T23:19:51.727Z,5.00
2022-08-19T23:20:51.711Z,1.30
2022-08-19T23:21:51.706Z,4.00
2022-08-19T23:22:51.690Z,5.50
2022-08-19T23:23:51.679Z,7.10
2022-08-19T23:24:51.667Z,3.10
2022-08-19T23:25:51.661Z,2.80
2022-08-19T23:26:51.761Z,7.30
2022-08-19T23:27:51.743Z,7.40
2022-08-19T23:28:51.618Z,3.70
2022-08-19T23:29:51.611Z,3.90
2022-08-19T23:30:51.590Z,4.30
